Time;durP1;ratioP1;P1;durP2;ratioP2;P2;SDS_P1;SDS_P2;PMS_P1;PMS_P2;Temp;Humidity;BMP_temperature;BMP_pressure;BME280_temperature;BME280_humidity;BME280_pressure;Samples;Min_cycle;Max_cycle;Signal;HPM_P1;HPM_P2
2022/04/27 00:01:44;;;;;;;;;17.00;15.00;;;;;;;;5101548;27;45315;-79
2022/04/27 00:04:10;;;;;;;;;20.00;19.33;;;;;;;;5101400;27;45238;-79
2022/04/27 00:06:35;;;;;;;;;18.33;18.33;;;;;;;;5100243;27;45413;-79
2022/04/27 00:09:00;;;;;;;;;17.33;16.00;;;;;;;;5101350;27;45372;-80
2022/04/27 00:11:25;;;;;;;;;20.75;19.50;;;;;;;;5100015;27;48136;-80
2022/04/27 00:13:51;;;;;;;;;20.00;18.00;;;;;;;;5101425;27;45270;-81
2022/04/27 00:16:16;;;;;;;;;18.33;17.00;;;;;;;;5114489;27;45359;-80
2022/04/27 00:18:41;;;;;;;;;20.33;19.33;;;;;;;;5121736;27;45399;-80
2022/04/27 00:21:06;;;;;;;;;19.33;17.33;;;;;;;;5121909;27;46175;-79
2022/04/27 00:23:33;;;;;;;;;22.00;19.33;;;;;;;;5121418;27;45223;-79
2022/04/27 00:25:58;;;;;;;;;18.33;15.67;;;;;;;;5122170;27;45277;-79
2022/04/27 00:28:24;;;;;;;;;19.75;19.00;;;;;;;;5121660;27;45261;-79
2022/04/27 00:30:49;;;;;;;;;17.67;17.67;;;;;;;;5120337;27;48494;-79
2022/04/27 00:33:15;;;;;;;;;21.00;20.33;;;;;;;;5120225;27;45292;-79
2022/04/27 00:35:40;;;;;;;;;16.00;15.33;;;;;;;;5120373;27;45405;-79
2022/04/27 00:38:05;;;;;;;;;20.67;18.67;;;;;;;;5119994;27;47314;-79
2022/04/27 00:40:31;;;;;;;;;22.67;20.67;;;;;;;;5121518;27;45416;-79
2022/04/27 00:42:56;;;;;;;;;26.75;25.00;;;;;;;;5121366;27;45338;-79
2022/04/27 00:45:22;;;;;;;;;18.25;17.25;;;;;;;;5121590;27;45286;-79
2022/04/27 00:47:47;;;;;;;;;20.75;18.25;;;;;;;;5120230;27;47051;-79
2022/04/27 00:50:13;;;;;;;;;17.25;17.25;;;;;;;;5119900;27;48160;-79
2022/04/27 00:52:38;;;;;;;;;18.00;18.00;;;;;;;;5120964;27;45372;-78
2022/04/27 00:55:04;;;;;;;;;20.25;19.75;;;;;;;;5120597;27;45451;-79
2022/04/27 00:57:30;;;;;;;;;21.25;20.75;;;;;;;;5119877;27;46396;-79
2022/04/27 00:59:55;;;;;;;;;21.00;20.00;;;;;;;;5121394;27;45312;-79
2022/04/27 01:02:21;;;;;;;;;20.33;20.33;;;;;;;;5121285;27;45322;-80
2022/04/27 01:04:46;;;;;;;;;18.75;17.75;;;;;;;;5121230;27;45378;-79
2022/04/27 01:07:11;;;;;;;;;23.00;20.00;;;;;;;;5119520;27;47097;-80
2022/04/27 01:09:37;;;;;;;;;20.33;19.33;;;;;;;;5119664;27;47465;-79
2022/04/27 01:12:03;;;;;;;;;21.50;20.25;;;;;;;;5119834;27;45271;-79
2022/04/27 01:14:28;;;;;;;;;20.75;19.50;;;;;;;;5119717;27;45320;-79
2022/04/27 01:16:54;;;;;;;;;21.67;20.33;;;;;;;;5099555;27;46292;-79
2022/04/27 01:19:21;;;;;;;;;20.50;20.50;;;;;;;;5099005;27;47253;-79
2022/04/27 01:21:47;;;;;;;;;22.00;22.00;;;;;;;;5098753;27;45305;-79
2022/04/27 01:24:12;;;;;;;;;26.25;24.50;;;;;;;;5100121;27;45336;-79
2022/04/27 01:26:37;;;;;;;;;23.75;22.00;;;;;;;;5100270;27;45275;-80
2022/04/27 01:29:03;;;;;;;;;19.75;19.00;;;;;;;;5098801;27;47527;-79
2022/04/27 01:31:28;;;;;;;;;21.25;19.75;;;;;;;;5098489;27;45998;-79
2022/04/27 01:33:55;;;;;;;;;20.50;20.00;;;;;;;;5100223;27;45457;-79
2022/04/27 01:36:20;;;;;;;;;20.00;20.00;;;;;;;;5100101;27;45464;-79
2022/04/27 01:38:45;;;;;;;;;21.75;20.00;;;;;;;;5098309;27;48370;-79
2022/04/27 01:41:10;;;;;;;;;22.00;21.25;;;;;;;;5098667;27;45366;-79
2022/04/27 01:43:36;;;;;;;;;19.25;18.50;;;;;;;;5100183;27;45371;-80
2022/04/27 01:46:02;;;;;;;;;21.00;21.00;;;;;;;;5099894;27;45492;-79
2022/04/27 01:48:27;;;;;;;;;23.00;20.50;;;;;;;;5098472;27;47429;-79
2022/04/27 01:50:53;;;;;;;;;21.50;21.50;;;;;;;;5099929;27;45336;-78
2022/04/27 01:56:03;;;;;;;;;18.75;18.25;;;;;;;;5099652;27;45271;-79
2022/04/27 01:58:28;;;;;;;;;24.75;23.50;;;;;;;;5099519;27;45534;-79
2022/04/27 02:00:53;;;;;;;;;23.75;20.25;;;;;;;;5098173;27;45400;-79
2022/04/27 02:03:20;;;;;;;;;19.50;18.75;;;;;;;;5099808;27;45259;-79
2022/04/27 02:05:46;;;;;;;;;23.00;20.75;;;;;;;;5100669;27;46163;-78
2022/04/27 02:08:11;;;;;;;;;20.00;17.50;;;;;;;;5101591;27;47076;-80
2022/04/27 02:10:37;;;;;;;;;21.75;19.50;;;;;;;;5103507;27;45238;-79
2022/04/27 02:13:02;;;;;;;;;23.25;21.00;;;;;;;;5103470;27;45443;-79
2022/04/27 02:15:28;;;;;;;;;23.25;23.00;;;;;;;;5111128;27;45457;-80
2022/04/27 02:17:53;;;;;;;;;22.67;22.00;;;;;;;;5123848;27;45398;-79
2022/04/27 02:20:18;;;;;;;;;25.50;23.00;;;;;;;;5122322;27;45273;-79
2022/04/27 02:22:44;;;;;;;;;20.25;20.25;;;;;;;;5122170;27;45511;-80
2022/04/27 02:25:09;;;;;;;;;20.25;20.25;;;;;;;;5123703;27;45295;-79
2022/04/27 02:27:35;;;;;;;;;22.50;21.50;;;;;;;;5123536;27;45327;-79
2022/04/27 02:30:00;;;;;;;;;21.25;20.00;;;;;;;;5123784;27;45414;-78
2022/04/27 02:32:26;;;;;;;;;21.25;20.00;;;;;;;;5123524;27;45299;-79
2022/04/27 02:34:51;;;;;;;;;25.00;25.00;;;;;;;;5122044;27;45953;-79
2022/04/27 02:37:16;;;;;;;;;23.00;20.25;;;;;;;;5123126;27;46266;-80
2022/04/27 02:39:42;;;;;;;;;23.00;22.50;;;;;;;;5123523;27;45340;-79
2022/04/27 02:42:07;;;;;;;;;22.25;20.25;;;;;;;;5122266;27;45352;-79
2022/04/27 02:44:32;;;;;;;;;23.50;23.00;;;;;;;;5123273;27;45546;-79
2022/04/27 02:46:57;;;;;;;;;24.75;23.25;;;;;;;;5123260;27;45242;-79
2022/04/27 02:52:07;;;;;;;;;21.00;19.00;;;;;;;;5123011;27;45501;-79
2022/04/27 02:54:32;;;;;;;;;23.50;22.25;;;;;;;;5121716;27;46214;-79
2022/04/27 02:56:58;;;;;;;;;23.25;21.25;;;;;;;;5123265;27;45547;-79
2022/04/27 02:59:23;;;;;;;;;16.00;15.75;;;;;;;;5123091;27;45350;-78
2022/04/27 03:01:48;;;;;;;;;24.75;24.50;;;;;;;;5123342;27;45562;-79
2022/04/27 03:04:13;;;;;;;;;22.75;22.50;;;;;;;;5123006;27;45374;-79
2022/04/27 03:06:39;;;;;;;;;22.25;21.75;;;;;;;;5121477;27;47462;-79
2022/04/27 03:09:04;;;;;;;;;23.50;21.25;;;;;;;;5122902;27;45458;-79
2022/04/27 03:11:29;;;;;;;;;29.00;26.00;;;;;;;;5123119;27;45225;-79
2022/04/27 03:13:54;;;;;;;;;28.00;24.25;;;;;;;;5123064;27;45285;-79
2022/04/27 03:16:19;;;;;;;;;27.50;26.75;;;;;;;;5106603;27;45586;-79
2022/04/27 03:18:46;;;;;;;;;22.75;22.75;;;;;;;;5102276;27;45308;-79
2022/04/27 03:21:11;;;;;;;;;26.50;26.25;;;;;;;;5102430;27;45216;-79
2022/04/27 03:23:36;;;;;;;;;25.50;25.50;;;;;;;;5100176;27;46046;-79
2022/04/27 03:26:02;;;;;;;;;26.25;24.25;;;;;;;;5100591;27;47221;-78
2022/04/27 03:28:27;;;;;;;;;29.25;24.25;;;;;;;;5102056;27;45479;-79
2022/04/27 03:30:53;;;;;;;;;26.50;25.75;;;;;;;;5101963;27;45274;-79
2022/04/27 03:33:18;;;;;;;;;29.50;27.25;;;;;;;;5100585;27;46421;-79
2022/04/27 03:35:43;;;;;;;;;34.00;31.50;;;;;;;;5100264;27;48398;-79
2022/04/27 03:38:09;;;;;;;;;34.50;31.00;;;;;;;;5101753;27;45299;-78
2022/04/27 03:40:35;;;;;;;;;37.00;31.50;;;;;;;;5100542;27;45379;-79
2022/04/27 03:43:00;;;;;;;;;56.75;45.75;;;;;;;;5101760;27;45394;-79
2022/04/27 03:45:25;;;;;;;;;55.00;44.00;;;;;;;;5101711;27;45483;-80
2022/04/27 03:47:50;;;;;;;;;51.75;42.00;;;;;;;;5101869;27;45377;-79
2022/04/27 03:50:16;;;;;;;;;42.50;37.25;;;;;;;;5101867;27;45290;-80
2022/04/27 03:52:42;;;;;;;;;29.25;28.00;;;;;;;;5101532;27;45313;-79
2022/04/27 03:55:08;;;;;;;;;43.00;35.50;;;;;;;;5100291;27;47533;-79
2022/04/27 03:57:33;;;;;;;;;47.50;38.00;;;;;;;;5101523;27;45269;-79
2022/04/27 03:59:58;;;;;;;;;28.50;25.75;;;;;;;;5100568;27;45297;-79
2022/04/27 04:02:23;;;;;;;;;47.50;35.25;;;;;;;;5100156;27;47348;-79
2022/04/27 04:04:48;;;;;;;;;55.75;45.00;;;;;;;;5101397;27;45426;-79
2022/04/27 04:07:14;;;;;;;;;127.00;114.67;;;;;;;;5101421;27;45272;-79
2022/04/27 04:09:39;;;;;;;;;99.25;86.00;;;;;;;;5101691;27;45206;-77
2022/04/27 04:12:05;;;;;;;;;110.00;99.00;;;;;;;;5101079;27;45346;-78
2022/04/27 04:14:30;;;;;;;;;136.67;124.33;;;;;;;;5101332;27;46209;-78
2022/04/27 04:16:55;;;;;;;;;118.50;101.00;;;;;;;;5121576;27;45267;-80
2022/04/27 04:19:21;;;;;;;;;53.00;43.00;;;;;;;;5088301;27;45294;-79
2022/04/27 04:21:46;;;;;;;;;54.75;44.00;;;;;;;;5079277;28;47015;-79
2022/04/27 04:24:11;;;;;;;;;78.25;61.25;;;;;;;;5079922;27;45475;-79
2022/04/27 04:29:20;;;;;;;;;53.00;43.50;;;;;;;;5080593;28;45463;-79
2022/04/27 04:31:45;;;;;;;;;70.75;55.50;;;;;;;;5079057;27;46438;-79
2022/04/27 04:34:10;;;;;;;;;37.25;34.00;;;;;;;;5080470;27;46420;-80
2022/04/27 04:36:35;;;;;;;;;43.50;37.00;;;;;;;;5080566;27;45400;-79
2022/04/27 04:39:01;;;;;;;;;63.75;49.00;;;;;;;;5080587;27;45491;-80
2022/04/27 04:41:26;;;;;;;;;62.50;48.75;;;;;;;;5078895;28;46116;-79
2022/04/27 04:43:51;;;;;;;;;70.75;54.00;;;;;;;;5080365;27;46218;-80
2022/04/27 04:46:16;;;;;;;;;54.50;45.25;;;;;;;;5078921;28;45251;-80
2022/04/27 04:48:41;;;;;;;;;48.25;39.00;;;;;;;;5079188;27;45301;-80
2022/04/27 04:51:07;;;;;;;;;37.00;32.50;;;;;;;;5080908;27;45546;-79
2022/04/27 04:53:32;;;;;;;;;28.75;27.00;;;;;;;;5080073;27;46429;-79
2022/04/27 04:55:58;;;;;;;;;30.25;26.00;;;;;;;;5080745;27;45326;-80
2022/04/27 04:58:23;;;;;;;;;33.25;30.00;;;;;;;;5080436;27;45451;-79
2022/04/27 05:00:48;;;;;;;;;32.75;31.75;;;;;;;;5080383;27;45437;-80
2022/04/27 05:03:14;;;;;;;;;30.75;29.25;;;;;;;;5080012;27;46346;-80
2022/04/27 05:05:39;;;;;;;;;34.00;33.00;;;;;;;;5080232;27;45235;-80
2022/04/27 05:08:06;;;;;;;;;33.75;32.00;;;;;;;;5080417;27;45420;-79
2022/04/27 05:10:31;;;;;;;;;29.00;27.25;;;;;;;;5094380;27;45365;-79
2022/04/27 05:12:56;;;;;;;;;35.75;32.00;;;;;;;;5094025;27;45232;-79
2022/04/27 05:15:22;;;;;;;;;31.25;30.75;;;;;;;;5094733;27;45419;-81
2022/04/27 05:17:47;;;;;;;;;39.50;35.25;;;;;;;;5121241;27;45336;-78
2022/04/27 05:20:12;;;;;;;;;32.00;29.50;;;;;;;;5120932;27;45370;-78
2022/04/27 05:22:38;;;;;;;;;33.00;30.25;;;;;;;;5119126;27;47018;-78
2022/04/27 05:25:04;;;;;;;;;37.75;34.00;;;;;;;;5120942;27;45258;-78
2022/04/27 05:27:30;;;;;;;;;40.25;35.25;;;;;;;;5121036;27;45293;-78
2022/04/27 05:32:39;;;;;;;;;42.50;34.75;;;;;;;;5120511;27;45218;-78
2022/04/27 05:35:05;;;;;;;;;37.00;34.00;;;;;;;;5120613;27;45407;-78
2022/04/27 05:37:30;;;;;;;;;38.25;34.50;;;;;;;;5120500;27;45315;-78
2022/04/27 05:39:55;;;;;;;;;36.50;32.00;;;;;;;;5118819;27;47128;-78
2022/04/27 05:42:20;;;;;;;;;45.00;36.75;;;;;;;;5119150;27;47339;-77
2022/04/27 05:44:45;;;;;;;;;45.25;34.50;;;;;;;;5119267;27;45964;-77
2022/04/27 05:47:12;;;;;;;;;39.25;31.75;;;;;;;;5120824;27;45135;-77
2022/04/27 05:49:37;;;;;;;;;57.00;47.50;;;;;;;;5119176;27;47443;-77
2022/04/27 05:52:02;;;;;;;;;119.25;99.00;;;;;;;;5119988;27;45882;-77
2022/04/27 05:54:28;;;;;;;;;81.25;61.25;;;;;;;;5119119;27;45234;-78
2022/04/27 05:56:53;;;;;;;;;119.00;105.00;;;;;;;;5119134;27;45338;-77
2022/04/27 05:59:18;;;;;;;;;84.00;64.75;;;;;;;;5120554;27;45332;-78
2022/04/27 06:01:45;;;;;;;;;72.75;56.75;;;;;;;;5120378;27;46102;-78
2022/04/27 06:04:10;;;;;;;;;92.75;78.00;;;;;;;;5120116;27;45297;-78
2022/04/27 06:06:35;;;;;;;;;121.33;101.67;;;;;;;;5120448;27;45345;-78
2022/04/27 06:09:01;;;;;;;;;134.00;120.67;;;;;;;;5118866;27;46856;-77
2022/04/27 06:11:26;;;;;;;;;104.75;83.75;;;;;;;;5118716;27;46950;-78
2022/04/27 06:13:51;;;;;;;;;92.75;81.50;;;;;;;;5118964;27;45458;-78
2022/04/27 06:16:17;;;;;;;;;114.00;102.75;;;;;;;;5103961;27;45424;-77
2022/04/27 06:18:42;;;;;;;;;89.50;78.00;;;;;;;;5099721;27;45350;-77
2022/04/27 06:21:08;;;;;;;;;67.25;52.75;;;;;;;;5098374;27;47024;-78
2022/04/27 06:23:33;;;;;;;;;56.00;46.00;;;;;;;;5097663;27;45748;-77
2022/04/27 06:25:59;;;;;;;;;61.75;48.50;;;;;;;;5099911;27;45363;-77
2022/04/27 06:28:24;;;;;;;;;75.25;54.50;;;;;;;;5099660;27;45262;-77
2022/04/27 06:30:49;;;;;;;;;53.25;42.50;;;;;;;;5099312;27;45628;-77
2022/04/27 06:33:14;;;;;;;;;59.25;46.50;;;;;;;;5097960;27;45314;-78
2022/04/27 06:35:40;;;;;;;;;79.75;65.50;;;;;;;;5099205;27;45536;-78
2022/04/27 06:38:05;;;;;;;;;81.00;68.25;;;;;;;;5098978;27;45203;-78
2022/04/27 06:40:30;;;;;;;;;180.33;151.67;;;;;;;;5099360;27;45281;-78
2022/04/27 06:42:56;;;;;;;;;135.33;119.33;;;;;;;;5099374;27;45288;-78
2022/04/27 06:45:25;;;;;;;;;167.33;149.33;;;;;;;;5099555;27;45259;-78
2022/04/27 06:47:51;;;;;;;;;144.00;130.00;;;;;;;;5099151;27;45468;-78
2022/04/27 06:50:16;;;;;;;;;80.00;67.25;;;;;;;;5099194;27;45295;-78
2022/04/27 06:52:47;;;;;;;;;49.25;41.00;;;;;;;;5099279;27;45390;-77
2022/04/27 06:55:13;;;;;;;;;48.75;39.25;;;;;;;;5102780;27;45720;-78
2022/04/27 06:57:39;;;;;;;;;50.25;40.75;;;;;;;;5101133;27;47246;-79
2022/04/27 07:00:04;;;;;;;;;47.25;38.00;;;;;;;;5101072;27;47135;-77
2022/04/27 07:02:30;;;;;;;;;56.50;42.50;;;;;;;;5102504;27;45318;-77
2022/04/27 07:04:59;;;;;;;;;50.75;41.25;;;;;;;;5102448;27;45370;-78
2022/04/27 07:07:25;;;;;;;;;70.50;54.50;;;;;;;;5102111;27;45595;-78
2022/04/27 07:09:50;;;;;;;;;55.75;45.25;;;;;;;;5100935;27;47185;-77
2022/04/27 07:12:15;;;;;;;;;44.25;38.50;;;;;;;;5102591;27;45320;-77
2022/04/27 07:14:40;;;;;;;;;70.75;55.00;;;;;;;;5102395;27;45325;-77
2022/04/27 07:17:06;;;;;;;;;47.50;39.00;;;;;;;;5122964;27;45508;-77
2022/04/27 07:19:31;;;;;;;;;71.00;55.00;;;;;;;;5123066;27;45370;-77
2022/04/27 07:21:56;;;;;;;;;82.50;70.50;;;;;;;;5122522;27;45263;-77
2022/04/27 07:24:21;;;;;;;;;82.75;76.50;;;;;;;;5123075;27;45565;-77
2022/04/27 07:26:46;;;;;;;;;69.25;52.75;;;;;;;;5122995;27;45291;-78
2022/04/27 07:29:12;;;;;;;;;58.50;47.00;;;;;;;;5122574;27;45437;-76
2022/04/27 07:31:37;;;;;;;;;43.00;36.50;;;;;;;;5122720;27;45372;-76
2022/04/27 07:34:02;;;;;;;;;40.25;35.50;;;;;;;;5122724;27;45247;-76
2022/04/27 07:36:27;;;;;;;;;45.50;37.50;;;;;;;;5122604;27;45302;-77
2022/04/27 07:38:52;;;;;;;;;47.00;36.75;;;;;;;;5122456;27;45326;-77
2022/04/27 07:41:18;;;;;;;;;41.75;36.75;;;;;;;;5120949;27;45329;-77
2022/04/27 07:43:43;;;;;;;;;63.25;47.75;;;;;;;;5122594;27;45437;-77
2022/04/27 07:46:09;;;;;;;;;51.00;42.25;;;;;;;;5122315;27;45333;-78
2022/04/27 07:48:34;;;;;;;;;43.00;36.00;;;;;;;;5120957;27;47097;-77
2022/04/27 07:51:00;;;;;;;;;47.75;38.25;;;;;;;;5121027;27;45369;-78
2022/04/27 07:53:25;;;;;;;;;55.75;44.25;;;;;;;;5122084;27;45767;-77
2022/04/27 07:55:51;;;;;;;;;43.75;35.50;;;;;;;;5120987;27;45837;-77
2022/04/27 07:58:16;;;;;;;;;113.50;102.25;;;;;;;;5122146;27;46127;-76
2022/04/27 08:00:41;;;;;;;;;62.00;49.00;;;;;;;;5122287;27;45362;-77
2022/04/27 08:03:06;;;;;;;;;52.50;41.25;;;;;;;;5122002;27;45341;-78
2022/04/27 08:05:32;;;;;;;;;55.25;43.25;;;;;;;;5122019;27;45519;-77
2022/04/27 08:07:57;;;;;;;;;52.50;43.50;;;;;;;;5121758;27;46054;-79
2022/04/27 08:10:22;;;;;;;;;71.00;59.00;;;;;;;;5120626;27;45295;-77
2022/04/27 08:12:49;;;;;;;;;49.50;40.75;;;;;;;;5122376;27;45317;-77
2022/04/27 08:15:15;;;;;;;;;51.75;42.50;;;;;;;;5114621;27;46401;-78
2022/04/27 08:17:51;;;;;;;;;69.00;57.00;;;;;;;;5099686;27;47492;-77
2022/04/27 08:23:02;;;;;;;;;53.25;43.75;;;;;;;;5101010;27;45279;-77
2022/04/27 08:25:27;;;;;;;;;52.25;43.75;;;;;;;;5099986;27;46250;-77
2022/04/27 08:27:52;;;;;;;;;44.25;38.00;;;;;;;;5101004;27;46354;-77
2022/04/27 08:30:17;;;;;;;;;40.60;34.80;;;;;;;;5101531;27;45701;-79
2022/04/27 08:32:42;;;;;;;;;46.75;39.00;;;;;;;;5101100;27;45392;-78
2022/04/27 08:35:07;;;;;;;;;48.00;39.00;;;;;;;;5100858;27;45391;-78
2022/04/27 08:37:33;;;;;;;;;50.75;40.75;;;;;;;;5100405;27;45355;-78
2022/04/27 08:39:59;;;;;;;;;90.00;78.50;;;;;;;;5099506;27;45376;-78
2022/04/27 08:42:24;;;;;;;;;51.00;42.75;;;;;;;;5101046;27;45361;-78
2022/04/27 08:44:49;;;;;;;;;58.00;46.75;;;;;;;;5100642;27;45496;-78
2022/04/27 08:47:14;;;;;;;;;45.00;38.00;;;;;;;;5100837;27;45344;-79
2022/04/27 08:49:39;;;;;;;;;61.75;49.25;;;;;;;;5099572;27;45316;-78
2022/04/27 08:52:06;;;;;;;;;45.25;38.25;;;;;;;;5099237;27;45455;-79
2022/04/27 08:54:33;;;;;;;;;44.00;37.00;;;;;;;;5100741;27;45434;-79
2022/04/27 08:56:58;;;;;;;;;45.75;39.00;;;;;;;;5099048;27;46325;-78
2022/04/27 08:59:23;;;;;;;;;50.20;40.00;;;;;;;;5100804;27;45267;-78
2022/04/27 09:01:49;;;;;;;;;42.25;36.00;;;;;;;;5100881;27;45346;-78
2022/04/27 09:04:15;;;;;;;;;43.25;36.75;;;;;;;;5100510;27;45463;-78
2022/04/27 09:06:41;;;;;;;;;48.00;40.00;;;;;;;;5098874;27;47309;-79
2022/04/27 09:09:10;;;;;;;;;105.50;98.25;;;;;;;;5100366;27;45280;-79
2022/04/27 09:11:37;;;;;;;;;64.50;49.75;;;;;;;;5100747;27;45544;-79
2022/04/27 09:14:03;;;;;;;;;55.00;45.00;;;;;;;;5099791;27;45480;-79
2022/04/27 09:22:07;;;;;;;;;54.00;42.75;;;;;;;;5120652;27;45443;-79
2022/04/27 09:24:49;;;;;;;;;43.25;36.50;;;;;;;;5120765;27;45294;-78
2022/04/27 09:27:17;;;;;;;;;46.50;38.25;;;;;;;;5120972;27;45475;-79
2022/04/27 09:29:42;;;;;;;;;39.25;34.50;;;;;;;;5120854;27;45372;-79
2022/04/27 09:32:14;;;;;;;;;54.25;44.25;;;;;;;;5119428;27;45449;-78
2022/04/27 09:34:43;;;;;;;;;51.00;41.25;;;;;;;;5120564;27;45464;-79
2022/04/27 09:37:16;;;;;;;;;159.67;137.00;;;;;;;;5119076;27;47216;-79
2022/04/27 09:39:46;;;;;;;;;51.75;42.25;;;;;;;;5120708;27;45407;-78
2022/04/27 09:42:13;;;;;;;;;79.00;71.50;;;;;;;;5119283;27;45249;-78
2022/04/27 09:44:39;;;;;;;;;50.50;42.00;;;;;;;;5120427;27;45463;-79
2022/04/27 09:47:05;;;;;;;;;44.50;37.00;;;;;;;;5120541;27;45307;-79
2022/04/27 09:49:35;;;;;;;;;47.00;39.50;;;;;;;;5120526;27;45320;-80
2022/04/27 09:52:01;;;;;;;;;57.25;46.50;;;;;;;;5120268;27;45221;-78
2022/04/27 09:54:28;;;;;;;;;43.75;36.50;;;;;;;;5118929;27;45995;-78
2022/04/27 09:56:57;;;;;;;;;43.25;38.00;;;;;;;;5120421;27;45966;-78
2022/04/27 09:59:26;;;;;;;;;41.75;35.00;;;;;;;;5120486;27;45550;-78
2022/04/27 10:01:53;;;;;;;;;42.25;35.75;;;;;;;;5120476;27;45226;-81
2022/04/27 10:04:19;;;;;;;;;43.00;37.00;;;;;;;;5120217;27;45575;-79
2022/04/27 10:06:44;;;;;;;;;53.00;44.25;;;;;;;;5118411;27;48293;-79
2022/04/27 10:09:09;;;;;;;;;52.75;42.50;;;;;;;;5120185;27;45322;-77
2022/04/27 10:11:36;;;;;;;;;70.50;60.75;;;;;;;;5119061;27;45368;-80
2022/04/27 10:14:02;;;;;;;;;54.75;43.00;;;;;;;;5120250;27;45374;-79
2022/04/27 10:16:27;;;;;;;;;46.00;37.75;;;;;;;;5103377;27;46121;-78
2022/04/27 10:18:52;;;;;;;;;43.00;35.75;;;;;;;;5099751;27;45355;-79
2022/04/27 10:21:39;;;;;;;;;41.50;35.75;;;;;;;;5099735;27;45476;-79
2022/04/27 10:24:05;;;;;;;;;53.00;43.25;;;;;;;;5099435;27;45306;-81
2022/04/27 10:26:30;;;;;;;;;44.67;36.33;;;;;;;;5101175;27;45649;-79
2022/04/27 10:28:56;;;;;;;;;46.00;37.75;;;;;;;;5101638;27;45839;-79
2022/04/27 10:31:54;;;;;;;;;37.00;32.00;;;;;;;;5103225;27;45280;-80
2022/04/27 10:34:23;;;;;;;;;38.33;31.67;;;;;;;;5078513;27;45542;-79
2022/04/27 10:36:49;;;;;;;;;34.00;31.00;;;;;;;;5102925;27;45333;-79
2022/04/27 10:39:15;;;;;;;;;46.00;38.00;;;;;;;;5102817;27;45370;-79
2022/04/27 10:41:41;;;;;;;;;42.33;35.33;;;;;;;;5103034;27;45244;-79
2022/04/27 10:44:07;;;;;;;;;39.33;33.67;;;;;;;;5102515;27;45329;-79
2022/04/27 10:46:38;;;;;;;;;68.00;54.50;;;;;;;;5102703;27;46230;-79
2022/04/27 10:49:23;;;;;;;;;47.75;40.50;;;;;;;;5101219;27;46197;-79
2022/04/27 10:51:59;;;;;;;;;39.00;33.67;;;;;;;;5101276;27;45344;-79
2022/04/27 10:54:29;;;;;;;;;106.25;92.25;;;;;;;;5102347;27;45263;-79
2022/04/27 10:56:55;;;;;;;;;42.67;35.67;;;;;;;;5101271;27;47493;-79
2022/04/27 10:59:43;;;;;;;;;49.50;41.50;;;;;;;;5102515;27;45354;-79
2022/04/27 11:02:27;;;;;;;;;68.25;55.25;;;;;;;;5099266;27;45345;-79
2022/04/27 11:04:53;;;;;;;;;37.33;33.00;;;;;;;;5102358;27;45593;-79
2022/04/27 11:07:37;;;;;;;;;56.75;44.25;;;;;;;;5100695;27;46336;-79
2022/04/27 11:10:15;;;;;;;;;32.67;29.67;;;;;;;;5102878;27;45395;-80
2022/04/27 11:12:41;;;;;;;;;40.00;33.67;;;;;;;;5102532;27;45325;-79
2022/04/27 11:15:07;;;;;;;;;30.67;28.33;;;;;;;;5105561;27;46439;-78
2022/04/27 11:17:35;;;;;;;;;63.75;50.25;;;;;;;;5122728;27;45311;-78
2022/04/27 11:20:03;;;;;;;;;81.25;72.50;;;;;;;;5121638;27;45289;-78
2022/04/27 11:22:35;;;;;;;;;37.00;32.00;;;;;;;;5122690;27;45310;-78
2022/04/27 11:25:00;;;;;;;;;50.67;43.00;;;;;;;;5121094;27;47614;-78
2022/04/27 11:27:27;;;;;;;;;45.00;36.67;;;;;;;;5121145;27;47680;-79
2022/04/27 11:29:53;;;;;;;;;32.33;30.33;;;;;;;;5122838;27;45414;-79
2022/04/27 11:32:18;;;;;;;;;30.33;29.00;;;;;;;;5123165;27;45400;-80
2022/04/27 11:34:47;;;;;;;;;30.67;28.33;;;;;;;;5123387;27;45600;-79
2022/04/27 11:37:14;;;;;;;;;32.67;31.33;;;;;;;;5120371;27;47203;-79
2022/04/27 11:39:39;;;;;;;;;67.25;53.25;;;;;;;;5122054;27;45382;-78
2022/04/27 11:42:04;;;;;;;;;42.67;35.33;;;;;;;;5121171;27;45250;-78
2022/04/27 11:44:31;;;;;;;;;127.25;107.50;;;;;;;;5122318;27;45408;-78
2022/04/27 11:46:56;;;;;;;;;39.33;33.00;;;;;;;;5121029;27;47339;-78
2022/04/27 11:49:24;;;;;;;;;73.75;66.00;;;;;;;;5122275;27;45357;-79
2022/04/27 11:51:50;;;;;;;;;66.00;54.75;;;;;;;;5122349;27;45297;-78
2022/04/27 11:54:28;;;;;;;;;30.67;29.33;;;;;;;;5122192;27;45225;-79
2022/04/27 11:56:59;;;;;;;;;44.00;36.00;;;;;;;;5122221;27;46430;-79
2022/04/27 11:59:25;;;;;;;;;34.33;30.67;;;;;;;;5122135;27;45294;-79
2022/04/27 12:01:51;;;;;;;;;28.67;26.33;;;;;;;;5122305;27;45353;-78
2022/04/27 12:04:16;;;;;;;;;65.75;53.50;;;;;;;;5120777;27;47159;-78
2022/04/27 12:06:41;;;;;;;;;83.00;75.25;;;;;;;;5120044;27;46977;-78
2022/04/27 12:09:06;;;;;;;;;70.25;60.50;;;;;;;;5122011;27;45428;-79
2022/04/27 12:11:31;;;;;;;;;65.00;52.00;;;;;;;;5122426;27;45229;-78
2022/04/27 12:13:58;;;;;;;;;74.25;64.25;;;;;;;;5121907;27;45203;-81
2022/04/27 12:16:30;;;;;;;;;98.75;88.00;;;;;;;;5106036;27;46540;-79
2022/04/27 12:18:55;;;;;;;;;37.33;32.00;;;;;;;;5100072;27;45930;-79
2022/04/27 12:21:24;;;;;;;;;44.67;37.00;;;;;;;;5101411;27;45368;-79
2022/04/27 12:23:50;;;;;;;;;49.33;40.00;;;;;;;;5101034;27;45464;-79
2022/04/27 12:26:16;;;;;;;;;69.50;57.00;;;;;;;;5099593;27;48393;-79
2022/04/27 12:28:44;;;;;;;;;23.67;22.33;;;;;;;;5099699;27;45370;-79
2022/04/27 12:31:09;;;;;;;;;26.00;23.33;;;;;;;;5101082;27;45245;-79
2022/04/27 12:33:38;;;;;;;;;50.33;41.00;;;;;;;;5099542;27;46004;-79
2022/04/27 12:38:55;;;;;;;;;29.67;29.00;;;;;;;;5100686;27;45397;-80
2022/04/27 12:41:33;;;;;;;;;27.33;26.00;;;;;;;;5101024;27;45443;-80
2022/04/27 12:44:05;;;;;;;;;44.33;36.33;;;;;;;;5099433;27;46671;-79
2022/04/27 12:46:31;;;;;;;;;29.00;25.67;;;;;;;;5099409;27;47643;-78
2022/04/27 12:49:03;;;;;;;;;53.00;43.25;;;;;;;;5100303;27;45369;-78
2022/04/27 12:51:29;;;;;;;;;64.75;51.50;;;;;;;;5100313;27;45250;-79
2022/04/27 12:53:54;;;;;;;;;34.00;30.00;;;;;;;;5099132;27;45459;-79
2022/04/27 12:56:22;;;;;;;;;26.67;25.33;;;;;;;;5100823;27;45144;-79
2022/04/27 12:59:01;;;;;;;;;37.33;32.33;;;;;;;;5100752;27;45268;-79
2022/04/27 13:01:29;;;;;;;;;39.33;34.67;;;;;;;;5100682;27;45279;-79
2022/04/27 13:03:55;;;;;;;;;44.67;37.00;;;;;;;;5100361;27;45460;-79
2022/04/27 13:06:22;;;;;;;;;42.33;35.33;;;;;;;;5100498;27;45252;-79
2022/04/27 13:08:48;;;;;;;;;69.25;58.75;;;;;;;;5100205;27;45432;-79
2022/04/27 13:13:58;;;;;;;;;58.50;47.00;;;;;;;;5100269;27;45255;-80
2022/04/27 13:16:24;;;;;;;;;35.00;31.67;;;;;;;;5116192;27;45337;-79
2022/04/27 13:18:49;;;;;;;;;25.67;25.67;;;;;;;;5119823;27;45683;-79
2022/04/27 13:21:16;;;;;;;;;35.33;32.00;;;;;;;;5121146;27;45321;-79
2022/04/27 13:23:42;;;;;;;;;54.00;43.33;;;;;;;;5119050;27;46037;-79
2022/04/27 13:26:07;;;;;;;;;28.50;28.50;;;;;;;;5120767;27;45298;-80
2022/04/27 13:28:34;;;;;;;;;29.00;27.00;;;;;;;;5119517;27;45719;-79
2022/04/27 13:31:01;;;;;;;;;26.33;25.67;;;;;;;;5121003;27;45309;-78
2022/04/27 13:33:28;;;;;;;;;38.33;32.67;;;;;;;;5120583;27;45411;-79
2022/04/27 13:35:53;;;;;;;;;23.33;23.00;;;;;;;;5120304;27;45381;-80
2022/04/27 13:38:18;;;;;;;;;26.00;26.00;;;;;;;;5118831;27;45666;-79
2022/04/27 13:40:45;;;;;;;;;38.67;33.33;;;;;;;;5120786;27;45351;-80
2022/04/27 13:43:10;;;;;;;;;42.00;33.00;;;;;;;;5120866;27;45321;-80
2022/04/27 13:45:36;;;;;;;;;81.25;73.50;;;;;;;;5120296;27;46133;-80
2022/04/27 13:48:01;;;;;;;;;23.33;22.00;;;;;;;;5120540;27;45415;-80
2022/04/27 13:50:27;;;;;;;;;19.67;19.00;;;;;;;;5119552;27;45554;-81
2022/04/27 13:52:53;;;;;;;;;22.67;22.67;;;;;;;;5120317;27;45357;-80
2022/04/27 13:55:18;;;;;;;;;35.00;31.33;;;;;;;;5120428;27;45199;-79
2022/04/27 13:57:43;;;;;;;;;36.00;30.67;;;;;;;;5120480;27;45201;-80
2022/04/27 14:00:09;;;;;;;;;46.00;37.33;;;;;;;;5120775;27;45298;-81
2022/04/27 14:02:35;;;;;;;;;50.67;41.00;;;;;;;;5122687;27;47525;-81
2022/04/27 14:05:00;;;;;;;;;45.00;38.25;;;;;;;;5124181;27;46163;-78
2022/04/27 14:07:27;;;;;;;;;37.67;32.33;;;;;;;;5123650;27;45202;-80
2022/04/27 14:09:52;;;;;;;;;24.00;24.00;;;;;;;;5124418;27;45302;-80
2022/04/27 14:15:01;;;;;;;;;46.67;37.67;;;;;;;;5119586;27;45766;-80
2022/04/27 14:20:11;;;;;;;;;40.00;34.67;;;;;;;;5103255;27;45222;-81
2022/04/27 14:22:36;;;;;;;;;44.33;37.00;;;;;;;;5101336;27;47432;-81
2022/04/27 14:25:03;;;;;;;;;51.25;40.50;;;;;;;;5101879;27;47339;-80
2022/04/27 14:27:28;;;;;;;;;47.00;38.00;;;;;;;;5103077;27;45275;-80
2022/04/27 14:29:53;;;;;;;;;48.00;39.00;;;;;;;;5102970;27;45297;-80
2022/04/27 14:32:19;;;;;;;;;34.00;30.33;;;;;;;;5102929;27;45332;-80
2022/04/27 14:34:44;;;;;;;;;22.67;22.67;;;;;;;;5102732;27;45430;-80
2022/04/27 14:37:09;;;;;;;;;19.67;18.67;;;;;;;;5101251;27;45805;-79
2022/04/27 14:39:34;;;;;;;;;43.33;36.00;;;;;;;;5103210;27;45437;-80
2022/04/27 14:41:59;;;;;;;;;45.25;36.50;;;;;;;;5103046;27;45360;-80